Pagrindinis puslapis
METAR-TAF:

METAR-TAF

Oro uostai :

Šimojas, Mozambikas

platuma: 19-07S, ilguma: 033-28E, Aukštis: 731 m

Dabartinis oras

Ataskaita buvo paskelbta 42 minutes, ne 21:00 UTC
Temperatūra 24°C
Drėgmė 94%
Slėgis 1019 hPa
Matomumas 10 km arba daugiau
Mažai debesys ne aukštis 2000 ft
Mažai debesys ne aukštis 2500 ft, Liūtiniai kamuoliniai debesys.

METAR: FQCH 272100Z /////KT 9999 FEW020 FEW025CB 24/23 Q1019 RMK CB TO SW

Laikas: 23:42 (21:42 UTC)

Prognozė

Ataskaita buvo paskelbta 5 valandos ir 42 minutes, ne 16:00 UTC
Prognozė galioja nuo 27 metu 18 UTC su 28 metu 18 UTC
Vėjas 10 kt iš Rytų
Matomumas 10 km arba daugiau
Išsisklaidę debesys ne aukštis 2000 ft
Tapsmas
nuo 27 metu 18 UTC su 27 metu 20 UTC
Vėjas 8 kt iš Pietų/Pietvakarių
Tapsmas
nuo 28 metu 12 UTC su 28 metu 14 UTC
Vėjas 12 kt iš Pietų/Pietryčių

TAF: FQCH 271600Z 2718/2818 09010KT 9999 SCT020 TX27/2813Z TN16/2803Z BECMG 2718/2720 21008KT BECMG 2812/2814 15012KT

Orai ataskaitas ir orų prognozės (METAR, TAF).

turimą stotys yra geltonos ir raudonos taškus žemėlapyje.

Perkelti pele per norėdami pamatyti stoties vardą.

Tada spustelėkite, norėdami matyti oro stebėjimo ir prognozės.

Norėdami pakeisti žemėlapį: spustelėkite ant žalios mygtukų su juodo kryžiaus žemyn,; žalią mygtuką su brūkšneliu, jei norite nutolinti; arba žalių rodyklių gretimoms žemėlapius.


METAR-TAF: